sensor_id;sensor_type;location;lat;lon;timestamp;pressure;altitude;pressure_sealevel;temperature;humidity
48404;BME280;34202;52.536;6.042;2023-04-28T00:02:43;101643.08;;;7.93;73.67
48404;BME280;34202;52.536;6.042;2023-04-28T00:07:46;101629.42;;;7.88;74.02
48404;BME280;34202;52.536;6.042;2023-04-28T00:12:46;101625.68;;;7.85;74.02
48404;BME280;34202;52.536;6.042;2023-04-28T00:17:46;101606.31;;;7.81;74.53
48404;BME280;34202;52.536;6.042;2023-04-28T00:22:47;101591.95;;;7.76;74.51
48404;BME280;34202;52.536;6.042;2023-04-28T00:27:49;101581.10;;;7.72;74.82
48404;BME280;34202;52.536;6.042;2023-04-28T00:32:49;101574.92;;;7.69;75.41
48404;BME280;34202;52.536;6.042;2023-04-28T00:37:50;101573.39;;;7.63;75.60
48404;BME280;34202;52.536;6.042;2023-04-28T00:42:51;101565.83;;;7.59;75.90
48404;BME280;34202;52.536;6.042;2023-04-28T00:47:51;101561.17;;;7.54;76.41
48404;BME280;34202;52.536;6.042;2023-04-28T00:52:52;101553.23;;;7.49;76.65
48404;BME280;34202;52.536;6.042;2023-04-28T00:57:54;101543.90;;;7.45;77.21
48404;BME280;34202;52.536;6.042;2023-04-28T01:02:56;101536.84;;;7.40;77.47
48404;BME280;34202;52.536;6.042;2023-04-28T01:07:56;101536.81;;;7.34;77.68
48404;BME280;34202;52.536;6.042;2023-04-28T01:12:57;101538.36;;;7.28;78.02
48404;BME280;34202;52.536;6.042;2023-04-28T01:17:58;101534.31;;;7.20;78.15
48404;BME280;34202;52.536;6.042;2023-04-28T01:22:58;101529.91;;;7.13;78.75
48404;BME280;34202;52.536;6.042;2023-04-28T01:27:58;101517.73;;;7.05;78.84
48404;BME280;34202;52.536;6.042;2023-04-28T01:32:59;101503.98;;;6.97;79.32
48404;BME280;34202;52.536;6.042;2023-04-28T01:37:59;101497.59;;;6.92;79.62
48404;BME280;34202;52.536;6.042;2023-04-28T01:43:00;101498.98;;;6.87;79.79
48404;BME280;34202;52.536;6.042;2023-04-28T01:48:00;101493.48;;;6.83;79.98
48404;BME280;34202;52.536;6.042;2023-04-28T01:53:01;101478.16;;;6.80;80.33
48404;BME280;34202;52.536;6.042;2023-04-28T01:58:01;101467.54;;;6.77;80.72
48404;BME280;34202;52.536;6.042;2023-04-28T02:03:01;101460.21;;;6.76;81.19
48404;BME280;34202;52.536;6.042;2023-04-28T02:08:02;101455.54;;;6.76;81.43
48404;BME280;34202;52.536;6.042;2023-04-28T02:13:02;101459.33;;;6.75;81.45
48404;BME280;34202;52.536;6.042;2023-04-28T02:18:03;101461.73;;;6.75;81.70
48404;BME280;34202;52.536;6.042;2023-04-28T02:23:03;101463.92;;;6.73;81.64
48404;BME280;34202;52.536;6.042;2023-04-28T02:28:04;101454.34;;;6.71;81.84
48404;BME280;34202;52.536;6.042;2023-04-28T02:33:04;101445.97;;;6.69;82.12
48404;BME280;34202;52.536;6.042;2023-04-28T02:38:04;101443.64;;;6.66;82.08
48404;BME280;34202;52.536;6.042;2023-04-28T02:43:05;101438.49;;;6.62;82.29
48404;BME280;34202;52.536;6.042;2023-04-28T02:48:05;101435.83;;;6.60;82.38
48404;BME280;34202;52.536;6.042;2023-04-28T02:53:06;101434.39;;;6.58;82.49
48404;BME280;34202;52.536;6.042;2023-04-28T02:58:06;101432.46;;;6.57;82.61
48404;BME280;34202;52.536;6.042;2023-04-28T03:03:07;101431.05;;;6.57;82.74
48404;BME280;34202;52.536;6.042;2023-04-28T03:08:07;101423.20;;;6.55;82.87
48404;BME280;34202;52.536;6.042;2023-04-28T03:13:08;101417.33;;;6.55;82.83
48404;BME280;34202;52.536;6.042;2023-04-28T03:18:08;101410.59;;;6.55;82.98
48404;BME280;34202;52.536;6.042;2023-04-28T03:23:09;101402.66;;;6.56;83.14
48404;BME280;34202;52.536;6.042;2023-04-28T03:28:09;101392.79;;;6.55;83.33
48404;BME280;34202;52.536;6.042;2023-04-28T03:33:10;101380.31;;;6.54;83.56
48404;BME280;34202;52.536;6.042;2023-04-28T03:38:11;101372.05;;;6.56;83.74
48404;BME280;34202;52.536;6.042;2023-04-28T03:43:11;101363.10;;;6.57;83.80
48404;BME280;34202;52.536;6.042;2023-04-28T03:48:12;101345.75;;;6.55;84.01
48404;BME280;34202;52.536;6.042;2023-04-28T03:53:12;101340.92;;;6.56;84.04
48404;BME280;34202;52.536;6.042;2023-04-28T03:58:12;101339.92;;;6.57;83.93
48404;BME280;34202;52.536;6.042;2023-04-28T04:03:13;101329.57;;;6.57;83.99
48404;BME280;34202;52.536;6.042;2023-04-28T04:08:13;101319.54;;;6.58;84.18
48404;BME280;34202;52.536;6.042;2023-04-28T04:13:13;101316.77;;;6.57;84.17
48404;BME280;34202;52.536;6.042;2023-04-28T04:18:14;101313.17;;;6.59;84.24
48404;BME280;34202;52.536;6.042;2023-04-28T04:23:14;101305.08;;;6.59;84.21
48404;BME280;34202;52.536;6.042;2023-04-28T04:28:15;101312.18;;;6.60;84.09
48404;BME280;34202;52.536;6.042;2023-04-28T04:33:15;101310.81;;;6.61;84.14
48404;BME280;34202;52.536;6.042;2023-04-28T04:38:16;101309.84;;;6.63;84.15
48404;BME280;34202;52.536;6.042;2023-04-28T04:43:16;101300.88;;;6.64;84.10
48404;BME280;34202;52.536;6.042;2023-04-28T04:48:16;101289.14;;;6.65;83.99
48404;BME280;34202;52.536;6.042;2023-04-28T04:53:17;101281.39;;;6.66;84.11
48404;BME280;34202;52.536;6.042;2023-04-28T04:58:17;101270.88;;;6.67;83.98
48404;BME280;34202;52.536;6.042;2023-04-28T05:03:18;101273.73;;;6.70;83.95
48404;BME280;34202;52.536;6.042;2023-04-28T05:08:18;101266.39;;;6.74;83.83
48404;BME280;34202;52.536;6.042;2023-04-28T05:13:18;101258.72;;;6.77;83.52
48404;BME280;34202;52.536;6.042;2023-04-28T05:18:19;101260.41;;;6.82;83.50
48404;BME280;34202;52.536;6.042;2023-04-28T05:23:19;101265.21;;;6.87;83.36
48404;BME280;34202;52.536;6.042;2023-04-28T05:28:20;101268.30;;;6.92;82.94
48404;BME280;34202;52.536;6.042;2023-04-28T05:33:21;101265.01;;;6.98;82.86
48404;BME280;34202;52.536;6.042;2023-04-28T05:38:23;101264.84;;;7.05;82.67
48404;BME280;34202;52.536;6.042;2023-04-28T05:43:23;101261.55;;;7.11;82.57
48404;BME280;34202;52.536;6.042;2023-04-28T05:48:24;101266.93;;;7.17;82.31
48404;BME280;34202;52.536;6.042;2023-04-28T05:53:24;101262.45;;;7.24;82.07
48404;BME280;34202;52.536;6.042;2023-04-28T05:58:25;101264.14;;;7.29;81.91
48404;BME280;34202;52.536;6.042;2023-04-28T06:03:26;101262.59;;;7.36;81.68
48404;BME280;34202;52.536;6.042;2023-04-28T06:08:26;101251.11;;;7.41;81.40
48404;BME280;34202;52.536;6.042;2023-04-28T06:13:27;101240.80;;;7.44;81.31
48404;BME280;34202;52.536;6.042;2023-04-28T06:18:28;101244.77;;;7.50;81.15
48404;BME280;34202;52.536;6.042;2023-04-28T06:23:31;101241.48;;;7.57;81.27
48404;BME280;34202;52.536;6.042;2023-04-28T06:28:32;101243.74;;;7.64;81.15
48404;BME280;34202;52.536;6.042;2023-04-28T06:33:32;101245.33;;;7.72;81.12
48404;BME280;34202;52.536;6.042;2023-04-28T06:38:33;101249.17;;;7.81;81.25
48404;BME280;34202;52.536;6.042;2023-04-28T06:43:33;101254.23;;;7.89;81.04
48404;BME280;34202;52.536;6.042;2023-04-28T06:48:34;101248.55;;;7.98;81.49
48404;BME280;34202;52.536;6.042;2023-04-28T06:53:34;101227.08;;;8.06;81.97
48404;BME280;34202;52.536;6.042;2023-04-28T06:58:34;101201.23;;;8.14;81.71
48404;BME280;34202;52.536;6.042;2023-04-28T07:03:36;101193.76;;;8.20;81.62
48404;BME280;34202;52.536;6.042;2023-04-28T07:08:36;101190.23;;;8.26;81.79
48404;BME280;34202;52.536;6.042;2023-04-28T07:13:36;101180.67;;;8.32;82.11
48404;BME280;34202;52.536;6.042;2023-04-28T07:18:37;101158.96;;;8.39;82.44
48404;BME280;34202;52.536;6.042;2023-04-28T07:23:37;101181.52;;;8.47;83.36
48404;BME280;34202;52.536;6.042;2023-04-28T07:28:39;101195.13;;;8.59;84.03
48404;BME280;34202;52.536;6.042;2023-04-28T07:33:39;101195.95;;;8.74;85.05
48404;BME280;34202;52.536;6.042;2023-04-28T07:38:40;101207.48;;;8.87;85.02
48404;BME280;34202;52.536;6.042;2023-04-28T07:43:40;101209.22;;;8.96;85.05
48404;BME280;34202;52.536;6.042;2023-04-28T07:48:41;101204.02;;;9.06;85.12
48404;BME280;34202;52.536;6.042;2023-04-28T07:53:41;101205.66;;;9.20;85.48
48404;BME280;34202;52.536;6.042;2023-04-28T07:58:41;101203.14;;;9.33;85.86
48404;BME280;34202;52.536;6.042;2023-04-28T08:03:42;101204.77;;;9.48;85.85
48404;BME280;34202;52.536;6.042;2023-04-28T08:08:42;101211.44;;;9.62;85.94
48404;BME280;34202;52.536;6.042;2023-04-28T08:13:43;101206.20;;;9.72;85.76
48404;BME280;34202;52.536;6.042;2023-04-28T08:18:43;101201.67;;;9.82;85.66
48404;BME280;34202;52.536;6.042;2023-04-28T08:23:44;101196.62;;;9.92;85.94
48404;BME280;34202;52.536;6.042;2023-04-28T08:28:45;101182.54;;;10.05;86.21
48404;BME280;34202;52.536;6.042;2023-04-28T08:33:46;101183.96;;;10.19;86.41
48404;BME280;34202;52.536;6.042;2023-04-28T08:38:49;101181.25;;;10.36;87.13
48404;BME280;34202;52.536;6.042;2023-04-28T08:43:49;101184.31;;;10.57;87.70
48404;BME280;34202;52.536;6.042;2023-04-28T08:48:50;101192.16;;;10.73;87.11
48404;BME280;34202;52.536;6.042;2023-04-28T08:53:56;101196.33;;;10.87;87.05
48404;BME280;34202;52.536;6.042;2023-04-28T08:59:03;101188.63;;;11.00;86.99
48404;BME280;34202;52.536;6.042;2023-04-28T09:04:04;101181.74;;;11.09;86.66
48404;BME280;34202;52.536;6.042;2023-04-28T09:09:37;101171.25;;;11.22;86.77
48404;BME280;34202;52.536;6.042;2023-04-28T09:14:38;101163.23;;;11.40;86.96
48404;BME280;34202;52.536;6.042;2023-04-28T09:19:39;101166.48;;;11.53;87.03
48404;BME280;34202;52.536;6.042;2023-04-28T09:24:42;101162.02;;;11.63;87.22
48404;BME280;34202;52.536;6.042;2023-04-28T09:29:52;101148.52;;;11.76;87.32
48404;BME280;34202;52.536;6.042;2023-04-28T09:34:54;101140.45;;;11.93;87.54
48404;BME280;34202;52.536;6.042;2023-04-28T09:40:09;101132.01;;;12.13;88.32
48404;BME280;34202;52.536;6.042;2023-04-28T09:45:14;101118.85;;;12.36;88.72
48404;BME280;34202;52.536;6.042;2023-04-28T09:50:16;101109.84;;;12.57;88.85
48404;BME280;34202;52.536;6.042;2023-04-28T09:55:17;101107.45;;;12.81;89.60
48404;BME280;34202;52.536;6.042;2023-04-28T10:00:19;101103.48;;;13.04;89.69
48404;BME280;34202;52.536;6.042;2023-04-28T10:05:22;101102.95;;;13.23;89.21
48404;BME280;34202;52.536;6.042;2023-04-28T10:10:22;101098.77;;;13.37;89.18
48404;BME280;34202;52.536;6.042;2023-04-28T10:15:24;101096.67;;;13.55;89.33
48404;BME280;34202;52.536;6.042;2023-04-28T10:20:25;101093.15;;;13.64;88.71
48404;BME280;34202;52.536;6.042;2023-04-28T10:25:34;101087.02;;;13.72;88.82
48404;BME280;34202;52.536;6.042;2023-04-28T10:30:35;101083.98;;;13.90;89.31
48404;BME280;34202;52.536;6.042;2023-04-28T10:35:44;101083.77;;;14.03;88.96
48404;BME280;34202;52.536;6.042;2023-04-28T10:40:50;101083.73;;;14.10;88.38
48404;BME280;34202;52.536;6.042;2023-04-28T10:56:07;101081.10;;;14.16;88.20
48404;BME280;34202;52.536;6.042;2023-04-28T11:11:31;101076.15;;;14.26;90.46
48404;BME280;34202;52.536;6.042;2023-04-28T11:16:56;101069.10;;;14.32;91.02
48404;BME280;34202;52.536;6.042;2023-04-28T11:27:10;101066.30;;;14.38;90.76
48404;BME280;34202;52.536;6.042;2023-04-28T11:32:11;101067.53;;;14.36;90.73
48404;BME280;34202;52.536;6.042;2023-04-28T11:37:14;101068.75;;;14.35;90.77
48404;BME280;34202;52.536;6.042;2023-04-28T11:42:14;101060.17;;;14.34;90.89
48404;BME280;34202;52.536;6.042;2023-04-28T11:47:27;101067.20;;;14.31;90.99
48404;BME280;34202;52.536;6.042;2023-04-28T11:52:28;101067.36;;;14.30;91.19
48404;BME280;34202;52.536;6.042;2023-04-28T11:57:28;101068.08;;;14.28;91.29
48404;BME280;34202;52.536;6.042;2023-04-28T12:02:28;101072.13;;;14.25;91.27
48404;BME280;34202;52.536;6.042;2023-04-28T12:07:42;101074.44;;;14.19;91.39
48404;BME280;34202;52.536;6.042;2023-04-28T12:12:43;101071.30;;;14.15;91.93
48404;BME280;34202;52.536;6.042;2023-04-28T12:17:44;101067.46;;;14.14;92.96
48404;BME280;34202;52.536;6.042;2023-04-28T12:22:49;101061.64;;;14.21;94.14
48404;BME280;34202;52.536;6.042;2023-04-28T12:28:00;101061.60;;;14.29;95.15
48404;BME280;34202;52.536;6.042;2023-04-28T12:33:01;101059.29;;;14.39;95.61
48404;BME280;34202;52.536;6.042;2023-04-28T12:38:01;101051.71;;;14.46;95.74
48404;BME280;34202;52.536;6.042;2023-04-28T12:43:02;101047.46;;;14.53;96.12
48404;BME280;34202;52.536;6.042;2023-04-28T12:48:02;101044.64;;;14.59;96.22
48404;BME280;34202;52.536;6.042;2023-04-28T12:53:02;101042.67;;;14.66;96.48
48404;BME280;34202;52.536;6.042;2023-04-28T12:58:04;101038.27;;;14.70;96.56
48404;BME280;34202;52.536;6.042;2023-04-28T13:03:04;101036.14;;;14.75;96.61
48404;BME280;34202;52.536;6.042;2023-04-28T13:08:05;101034.88;;;14.81;96.58
48404;BME280;34202;52.536;6.042;2023-04-28T13:13:06;101040.46;;;14.81;96.32
48404;BME280;34202;52.536;6.042;2023-04-28T13:18:06;101037.83;;;14.81;96.03
48404;BME280;34202;52.536;6.042;2023-04-28T13:23:07;101035.73;;;14.82;96.03
48404;BME280;34202;52.536;6.042;2023-04-28T13:28:07;101034.70;;;14.79;95.86
48404;BME280;34202;52.536;6.042;2023-04-28T13:33:07;101029.64;;;14.77;96.03
48404;BME280;34202;52.536;6.042;2023-04-28T13:38:08;101022.30;;;14.75;96.35
48404;BME280;34202;52.536;6.042;2023-04-28T13:43:08;101023.35;;;14.75;96.45
48404;BME280;34202;52.536;6.042;2023-04-28T13:48:09;101020.73;;;14.73;96.74
48404;BME280;34202;52.536;6.042;2023-04-28T13:53:09;101020.02;;;14.73;97.17
48404;BME280;34202;52.536;6.042;2023-04-28T13:58:10;101016.52;;;14.73;97.29
48404;BME280;34202;52.536;6.042;2023-04-28T14:03:10;101022.51;;;14.69;97.07
48404;BME280;34202;52.536;6.042;2023-04-28T14:08:11;101020.08;;;14.66;97.52
48404;BME280;34202;52.536;6.042;2023-04-28T14:13:11;101017.83;;;14.63;97.57
48404;BME280;34202;52.536;6.042;2023-04-28T14:18:12;101024.86;;;14.58;97.67
48404;BME280;34202;52.536;6.042;2023-04-28T14:23:14;101022.79;;;14.51;98.01
48404;BME280;34202;52.536;6.042;2023-04-28T14:28:14;101023.32;;;14.48;98.86
48404;BME280;34202;52.536;6.042;2023-04-28T14:33:15;101026.69;;;14.44;99.18
48404;BME280;34202;52.536;6.042;2023-04-28T14:38:15;101029.33;;;14.40;99.64
48404;BME280;34202;52.536;6.042;2023-04-28T14:43:16;101026.39;;;14.35;99.87
48404;BME280;34202;52.536;6.042;2023-04-28T14:48:16;101026.41;;;14.31;100.00
48404;BME280;34202;52.536;6.042;2023-04-28T14:53:17;101029.04;;;14.31;100.00
48404;BME280;34202;52.536;6.042;2023-04-28T14:58:17;101029.23;;;14.27;100.00
48404;BME280;34202;52.536;6.042;2023-04-28T15:03:18;101031.38;;;14.18;100.00
48404;BME280;34202;52.536;6.042;2023-04-28T15:08:19;101025.48;;;14.09;100.00
48404;BME280;34202;52.536;6.042;2023-04-28T15:13:19;101029.86;;;14.04;100.00
48404;BME280;34202;52.536;6.042;2023-04-28T15:18:21;101032.51;;;14.01;100.00
48404;BME280;34202;52.536;6.042;2023-04-28T15:23:21;101038.12;;;13.97;100.00
48404;BME280;34202;52.536;6.042;2023-04-28T15:28:21;101040.07;;;13.92;100.00
48404;BME280;34202;52.536;6.042;2023-04-28T15:33:22;101039.58;;;13.85;100.00
48404;BME280;34202;52.536;6.042;2023-04-28T15:38:23;101042.74;;;13.78;100.00
48404;BME280;34202;52.536;6.042;2023-04-28T15:43:23;101048.89;;;13.70;100.00
48404;BME280;34202;52.536;6.042;2023-04-28T15:48:24;101055.20;;;13.64;100.00
48404;BME280;34202;52.536;6.042;2023-04-28T15:53:25;101063.95;;;13.58;100.00
48404;BME280;34202;52.536;6.042;2023-04-28T15:58:25;101062.75;;;13.53;100.00
48404;BME280;34202;52.536;6.042;2023-04-28T16:03:26;101066.77;;;13.52;100.00
48404;BME280;34202;52.536;6.042;2023-04-28T16:08:26;101064.48;;;13.52;100.00
48404;BME280;34202;52.536;6.042;2023-04-28T16:13:28;101067.98;;;13.52;100.00
48404;BME280;34202;52.536;6.042;2023-04-28T16:18:35;101068.69;;;13.52;100.00
48404;BME280;34202;52.536;6.042;2023-04-28T16:23:35;101072.02;;;13.50;100.00
48404;BME280;34202;52.536;6.042;2023-04-28T16:28:36;101075.50;;;13.48;100.00
48404;BME280;34202;52.536;6.042;2023-04-28T16:33:37;101083.92;;;13.45;100.00
48404;BME280;34202;52.536;6.042;2023-04-28T16:38:38;101085.48;;;13.39;100.00
48404;BME280;34202;52.536;6.042;2023-04-28T16:43:38;101086.02;;;13.36;100.00
48404;BME280;34202;52.536;6.042;2023-04-28T16:48:38;101091.09;;;13.32;100.00
48404;BME280;34202;52.536;6.042;2023-04-28T16:53:38;101093.52;;;13.29;100.00
48404;BME280;34202;52.536;6.042;2023-04-28T16:58:39;101099.45;;;13.25;100.00
48404;BME280;34202;52.536;6.042;2023-04-28T17:03:40;101099.61;;;13.23;100.00
48404;BME280;34202;52.536;6.042;2023-04-28T17:08:40;101100.67;;;13.22;100.00
48404;BME280;34202;52.536;6.042;2023-04-28T17:13:41;101105.23;;;13.19;100.00
48404;BME280;34202;52.536;6.042;2023-04-28T17:18:41;101108.70;;;13.16;100.00
48404;BME280;34202;52.536;6.042;2023-04-28T17:23:42;101110.46;;;13.11;100.00
48404;BME280;34202;52.536;6.042;2023-04-28T17:28:42;101111.33;;;13.05;100.00
48404;BME280;34202;52.536;6.042;2023-04-28T17:33:43;101113.42;;;12.99;100.00
48404;BME280;34202;52.536;6.042;2023-04-28T17:38:44;101121.80;;;12.94;100.00
48404;BME280;34202;52.536;6.042;2023-04-28T17:43:45;101124.06;;;12.88;100.00
48404;BME280;34202;52.536;6.042;2023-04-28T17:48:47;101128.59;;;12.83;100.00
48404;BME280;34202;52.536;6.042;2023-04-28T17:53:47;101129.98;;;12.80;100.00
48404;BME280;34202;52.536;6.042;2023-04-28T17:58:48;101130.85;;;12.78;100.00
48404;BME280;34202;52.536;6.042;2023-04-28T18:03:48;101136.78;;;12.76;100.00
48404;BME280;34202;52.536;6.042;2023-04-28T18:08:48;101140.28;;;12.77;100.00
48404;BME280;34202;52.536;6.042;2023-04-28T18:13:49;101142.54;;;12.73;100.00
48404;BME280;34202;52.536;6.042;2023-04-28T18:18:49;101147.23;;;12.69;100.00
48404;BME280;34202;52.536;6.042;2023-04-28T18:23:49;101151.59;;;12.63;100.00
48404;BME280;34202;52.536;6.042;2023-04-28T18:28:50;101155.93;;;12.55;100.00
48404;BME280;34202;52.536;6.042;2023-04-28T18:33:50;101157.48;;;12.47;100.00
48404;BME280;34202;52.536;6.042;2023-04-28T18:38:51;101157.96;;;12.41;100.00
48404;BME280;34202;52.536;6.042;2023-04-28T18:43:51;101159.86;;;12.35;100.00
48404;BME280;34202;52.536;6.042;2023-04-28T18:48:54;101164.20;;;12.30;100.00
48404;BME280;34202;52.536;6.042;2023-04-28T18:53:55;101166.09;;;12.24;100.00
48404;BME280;34202;52.536;6.042;2023-04-28T18:58:56;101168.16;;;12.18;100.00
48404;BME280;34202;52.536;6.042;2023-04-28T19:03:56;101171.08;;;12.11;100.00
48404;BME280;34202;52.536;6.042;2023-04-28T19:08:57;101171.22;;;12.06;100.00
48404;BME280;34202;52.536;6.042;2023-04-28T19:13:57;101178.70;;;12.01;100.00
48404;BME280;34202;52.536;6.042;2023-04-28T19:18:58;101189.67;;;11.98;100.00
48404;BME280;34202;52.536;6.042;2023-04-28T19:23:58;101202.20;;;11.94;100.00
48404;BME280;34202;52.536;6.042;2023-04-28T19:28:58;101219.24;;;11.90;100.00
48404;BME280;34202;52.536;6.042;2023-04-28T19:33:59;101228.96;;;11.85;100.00
48404;BME280;34202;52.536;6.042;2023-04-28T19:38:59;101239.73;;;11.81;100.00
48404;BME280;34202;52.536;6.042;2023-04-28T19:44:00;101248.42;;;11.76;100.00
48404;BME280;34202;52.536;6.042;2023-04-28T19:49:01;101252.91;;;11.71;100.00
48404;BME280;34202;52.536;6.042;2023-04-28T19:54:01;101256.20;;;11.68;100.00
48404;BME280;34202;52.536;6.042;2023-04-28T19:59:01;101264.53;;;11.64;100.00
48404;BME280;34202;52.536;6.042;2023-04-28T20:04:02;101273.55;;;11.59;100.00
48404;BME280;34202;52.536;6.042;2023-04-28T20:09:02;101282.05;;;11.54;100.00
48404;BME280;34202;52.536;6.042;2023-04-28T20:14:04;101285.62;;;11.46;100.00
48404;BME280;34202;52.536;6.042;2023-04-28T20:19:04;101290.41;;;11.38;100.00
48404;BME280;34202;52.536;6.042;2023-04-28T20:24:05;101289.97;;;11.28;100.00
48404;BME280;34202;52.536;6.042;2023-04-28T20:29:06;101296.84;;;11.20;100.00
48404;BME280;34202;52.536;6.042;2023-04-28T20:34:07;101300.27;;;11.14;100.00
48404;BME280;34202;52.536;6.042;2023-04-28T20:39:07;101307.70;;;11.10;100.00
48404;BME280;34202;52.536;6.042;2023-04-28T20:44:10;101310.41;;;11.03;100.00
48404;BME280;34202;52.536;6.042;2023-04-28T20:49:11;101317.63;;;10.96;100.00
48404;BME280;34202;52.536;6.042;2023-04-28T20:54:12;101325.56;;;10.89;100.00
48404;BME280;34202;52.536;6.042;2023-04-28T20:59:13;101333.70;;;10.86;100.00
48404;BME280;34202;52.536;6.042;2023-04-28T21:04:13;101343.23;;;10.82;100.00
48404;BME280;34202;52.536;6.042;2023-04-28T21:09:14;101343.31;;;10.77;100.00
48404;BME280;34202;52.536;6.042;2023-04-28T21:14:14;101345.18;;;10.72;100.00
48404;BME280;34202;52.536;6.042;2023-04-28T21:19:15;101349.45;;;10.67;100.00
48404;BME280;34202;52.536;6.042;2023-04-28T21:24:16;101357.58;;;10.63;100.00
48404;BME280;34202;52.536;6.042;2023-04-28T21:29:16;101361.73;;;10.61;100.00
48404;BME280;34202;52.536;6.042;2023-04-28T21:34:17;101362.37;;;10.58;100.00
48404;BME280;34202;52.536;6.042;2023-04-28T21:39:18;101367.71;;;10.54;100.00
48404;BME280;34202;52.536;6.042;2023-04-28T21:44:18;101372.87;;;10.50;100.00
48404;BME280;34202;52.536;6.042;2023-04-28T21:49:19;101378.58;;;10.47;100.00
48404;BME280;34202;52.536;6.042;2023-04-28T21:54:19;101378.52;;;10.44;100.00
48404;BME280;34202;52.536;6.042;2023-04-28T21:59:20;101377.77;;;10.41;100.00
48404;BME280;34202;52.536;6.042;2023-04-28T22:04:20;101383.15;;;10.39;100.00
48404;BME280;34202;52.536;6.042;2023-04-28T22:09:21;101386.23;;;10.36;100.00
48404;BME280;34202;52.536;6.042;2023-04-28T22:14:21;101392.27;;;10.33;100.00
48404;BME280;34202;52.536;6.042;2023-04-28T22:19:21;101388.84;;;10.28;100.00
48404;BME280;34202;52.536;6.042;2023-04-28T22:24:22;101391.88;;;10.22;100.00
48404;BME280;34202;52.536;6.042;2023-04-28T22:29:22;101400.15;;;10.19;100.00
48404;BME280;34202;52.536;6.042;2023-04-28T22:34:23;101407.39;;;10.14;100.00
48404;BME280;34202;52.536;6.042;2023-04-28T22:39:24;101412.34;;;10.09;100.00
48404;BME280;34202;52.536;6.042;2023-04-28T22:44:25;101415.88;;;10.03;100.00
48404;BME280;34202;52.536;6.042;2023-04-28T22:49:26;101415.64;;;9.99;100.00
48404;BME280;34202;52.536;6.042;2023-04-28T22:54:27;101424.81;;;9.97;100.00
48404;BME280;34202;52.536;6.042;2023-04-28T22:59:28;101428.36;;;9.92;100.00
48404;BME280;34202;52.536;6.042;2023-04-28T23:04:28;101426.06;;;9.89;100.00
48404;BME280;34202;52.536;6.042;2023-04-28T23:09:28;101426.72;;;9.86;100.00
48404;BME280;34202;52.536;6.042;2023-04-28T23:14:31;101431.54;;;9.84;100.00
48404;BME280;34202;52.536;6.042;2023-04-28T23:19:32;101434.59;;;9.80;100.00
48404;BME280;34202;52.536;6.042;2023-04-28T23:24:37;101438.56;;;9.78;100.00
48404;BME280;34202;52.536;6.042;2023-04-28T23:29:39;101440.27;;;9.77;100.00
48404;BME280;34202;52.536;6.042;2023-04-28T23:34:39;101443.88;;;9.75;100.00
48404;BME280;34202;52.536;6.042;2023-04-28T23:39:41;101451.44;;;9.71;100.00
48404;BME280;34202;52.536;6.042;2023-04-28T23:44:42;101460.89;;;9.65;100.00
48404;BME280;34202;52.536;6.042;2023-04-28T23:49:42;101466.34;;;9.60;100.00
48404;BME280;34202;52.536;6.042;2023-04-28T23:54:43;101470.58;;;9.55;100.00
48404;BME280;34202;52.536;6.042;2023-04-28T23:59:43;101479.91;;;9.53;100.00
